Swan Lake, Canada
Current Conditions -  °F | °C
As of 3:00 PM on Friday 24 Oct 2014 (Local Time) from CYPG Reporting Station
Broken Clouds Broken Clouds  
Wind Chill: 66°   Ceiling: 24000
Heat Index: 66°   Visibility: 15mi
Dew Point: 34°   Wind: 29mph
Humidity: 30%   Direction: 270°W
Pressure: 29.63"   Gusts: 41mph
Location:  49.4°N, 98.8°W
Report Text: CYPG 242000Z 27025G36KT 15SM BKN240 19/01 A2963 RMK CI2 SLP038
Loading
Personal Weather Stations






























Interactive Weather Map
Tropical Storm Tracking
New forecast layout! Learn more

10-Day Weather Forecast

Advertisements
Track Severe Weather on mobile